Time;durP1;ratioP1;P1;durP2;ratioP2;P2;SDS_P1;SDS_P2;PMS_P1;PMS_P2;Temp;Humidity;BMP_temperature;BMP_pressure;BME280_temperature;BME280_humidity;BME280_pressure;Samples;Min_cycle;Max_cycle;Signal;HPM_P1;HPM_P2
2023/11/12 00:01:11;;;;;;;4.55;2.60;;;10.60;78.50;;;;;;4937066;29;20385;-76
2023/11/12 00:03:36;;;;;;;3.08;2.42;;;10.70;78.50;;;;;;4916323;29;20131;-76
2023/11/12 00:06:02;;;;;;;3.38;2.65;;;10.70;78.50;;;;;;4884376;29;20044;-76
2023/11/12 00:08:28;;;;;;;3.05;2.60;;;10.70;78.50;;;;;;4917342;29;20507;-76
2023/11/12 00:10:54;;;;;;;3.40;2.50;;;10.70;78.50;;;;;;4884787;29;20036;-76
2023/11/12 00:13:20;;;;;;;3.58;2.80;;;10.60;78.50;;;;;;4900589;29;20047;-76
2023/11/12 00:15:46;;;;;;;4.15;2.90;;;10.70;78.60;;;;;;4916204;29;20032;-77
2023/11/12 00:18:12;;;;;;;3.22;2.60;;;10.70;78.60;;;;;;4900973;29;20036;-76
2023/11/12 00:20:37;;;;;;;4.43;2.83;;;10.70;78.50;;;;;;4900267;29;20048;-76
2023/11/12 00:23:03;;;;;;;4.22;2.80;;;10.70;78.50;;;;;;4917123;29;20068;-76
2023/11/12 00:25:29;;;;;;;4.00;2.85;;;10.60;78.50;;;;;;4900505;29;20032;-76
2023/11/12 00:27:54;;;;;;;2.95;2.63;;;10.70;78.50;;;;;;4901355;29;20036;-76
2023/11/12 00:30:21;;;;;;;3.70;2.88;;;10.70;78.50;;;;;;4885103;29;20036;-76
2023/11/12 00:32:46;;;;;;;3.38;2.53;;;10.70;78.60;;;;;;4916146;29;20032;-77
2023/11/12 00:35:13;;;;;;;3.30;2.50;;;10.60;78.50;;;;;;4869450;29;20503;-76
2023/11/12 00:37:38;;;;;;;3.30;2.67;;;10.60;78.50;;;;;;4916751;29;20024;-76
2023/11/12 00:40:05;;;;;;;3.15;2.50;;;10.70;78.50;;;;;;4915895;29;20035;-77
2023/11/12 00:42:32;;;;;;;3.20;2.70;;;10.70;78.60;;;;;;4901127;29;20036;-76
2023/11/12 00:44:58;;;;;;;3.53;2.95;;;10.60;78.50;;;;;;4916958;29;20096;-76
2023/11/12 00:47:24;;;;;;;3.13;2.60;;;10.70;78.60;;;;;;4917058;29;20037;-76
2023/11/12 00:49:50;;;;;;;3.75;3.05;;;10.70;78.50;;;;;;4917237;29;20080;-76
2023/11/12 00:52:16;;;;;;;3.47;2.90;;;10.60;78.50;;;;;;4917452;29;20072;-77
2023/11/12 00:54:42;;;;;;;4.00;3.10;;;10.60;78.50;;;;;;4901062;29;20032;-76
2023/11/12 00:57:08;;;;;;;4.10;3.00;;;10.60;78.50;;;;;;4900235;29;20028;-76
2023/11/12 00:59:35;;;;;;;3.55;2.63;;;10.60;78.50;;;;;;4900229;29;20040;-76
2023/11/12 01:02:01;;;;;;;4.10;2.80;;;10.60;78.50;;;;;;4916108;29;20056;-77
2023/11/12 01:04:27;;;;;;;4.45;3.45;;;10.70;78.60;;;;;;4900494;29;20106;-76
2023/11/12 01:06:53;;;;;;;3.83;2.88;;;10.60;78.50;;;;;;4900221;29;20044;-76
2023/11/12 01:09:18;;;;;;;4.00;3.17;;;10.60;78.50;;;;;;4900559;29;20028;-76
2023/11/12 01:11:44;;;;;;;3.85;2.78;;;10.60;78.50;;;;;;4915585;29;20036;-76
2023/11/12 01:14:10;;;;;;;4.65;3.13;;;10.60;78.50;;;;;;4916405;29;20036;-77
2023/11/12 01:16:37;;;;;;;4.32;3.25;;;10.60;78.50;;;;;;4920024;29;20476;-77
2023/11/12 01:19:03;;;;;;;4.15;2.80;;;10.60;78.50;;;;;;4890041;29;20040;-77
2023/11/12 01:21:29;;;;;;;3.38;2.88;;;10.60;78.50;;;;;;4921540;29;20092;-76
2023/11/12 01:23:55;;;;;;;5.30;3.65;;;10.60;78.60;;;;;;4921636;29;20462;-76
2023/11/12 01:26:20;;;;;;;3.40;2.78;;;10.60;78.60;;;;;;4921172;29;20396;-76
2023/11/12 01:28:46;;;;;;;4.30;3.10;;;10.60;78.50;;;;;;4906461;29;20032;-76
2023/11/12 01:31:13;;;;;;;4.78;3.60;;;10.60;78.50;;;;;;4906019;29;20040;-76
2023/11/12 01:33:39;;;;;;;4.53;3.33;;;10.60;78.50;;;;;;4922517;29;20043;-76
2023/11/12 01:36:05;;;;;;;4.82;3.38;;;10.50;78.50;;;;;;4910053;29;20469;-76
2023/11/12 01:38:31;;;;;;;4.55;3.05;;;10.50;78.50;;;;;;4909261;29;20036;-76
2023/11/12 01:41:02;;;;;;;3.88;3.28;;;10.50;78.50;;;;;;4921994;29;20047;-76
2023/11/12 01:43:30;;;;;;;5.28;3.35;;;10.50;78.50;;;;;;4921579;29;20050;-76
2023/11/12 01:45:57;;;;;;;4.60;3.05;;;10.50;78.50;;;;;;4921531;29;20043;-76
2023/11/12 01:48:23;;;;;;;5.07;3.53;;;10.50;78.50;;;;;;4922778;29;20046;-76
2023/11/12 01:50:50;;;;;;;5.20;3.60;;;10.50;78.50;;;;;;4922082;29;20040;-76
2023/11/12 01:53:17;;;;;;;4.03;3.20;;;10.50;78.50;;;;;;4890186;29;20036;-76
2023/11/12 01:55:45;;;;;;;4.55;3.38;;;10.40;78.50;;;;;;4906602;29;20036;-76
2023/11/12 01:58:12;;;;;;;4.00;3.13;;;10.40;78.50;;;;;;4921648;29;20044;-77
2023/11/12 02:00:39;;;;;;;4.65;3.63;;;10.40;78.50;;;;;;4905534;29;20143;-76
2023/11/12 02:03:09;;;;;;;4.03;3.28;;;10.40;78.50;;;;;;4920958;29;20056;-76
2023/11/12 02:05:35;;;;;;;4.97;3.80;;;10.40;78.50;;;;;;4920917;29;20028;-76
2023/11/12 02:08:05;;;;;;;4.47;3.58;;;10.40;78.60;;;;;;4905693;29;20032;-76
2023/11/12 02:10:35;;;;;;;4.30;3.25;;;10.40;78.60;;;;;;4921130;29;20036;-76
2023/11/12 02:13:04;;;;;;;4.00;3.35;;;10.30;78.50;;;;;;4921739;29;20039;-76
2023/11/12 02:15:30;;;;;;;4.93;3.67;;;10.30;78.60;;;;;;4920383;29;20032;-76
2023/11/12 02:17:57;;;;;;;4.60;3.55;;;10.30;78.60;;;;;;4920401;29;20036;-76
2023/11/12 02:20:23;;;;;;;4.10;3.10;;;10.30;78.60;;;;;;4919948;29;20060;-76
2023/11/12 02:22:49;;;;;;;3.97;3.30;;;10.30;78.60;;;;;;4919688;29;20036;-77
2023/11/12 02:25:15;;;;;;;4.50;3.50;;;10.30;78.60;;;;;;4919022;29;20032;-77
2023/11/12 02:27:43;;;;;;;4.82;3.80;;;10.30;78.60;;;;;;4917790;29;20378;-77
2023/11/12 02:30:09;;;;;;;4.13;3.45;;;10.30;78.60;;;;;;4918374;29;20071;-76
2023/11/12 02:32:36;;;;;;;4.90;3.60;;;10.20;78.50;;;;;;4886748;29;20036;-77
2023/11/12 02:35:02;;;;;;;4.50;3.63;;;10.20;78.50;;;;;;4918803;29;20504;-75
2023/11/12 02:37:29;;;;;;;4.40;3.53;;;10.30;78.60;;;;;;4903870;29;20040;-76
2023/11/12 02:39:54;;;;;;;4.88;3.92;;;10.20;78.60;;;;;;4920424;29;20059;-78
2023/11/12 02:42:21;;;;;;;5.32;3.92;;;10.20;78.50;;;;;;4919268;29;20489;-77
2023/11/12 02:44:51;;;;;;;5.00;3.72;;;10.20;78.60;;;;;;4920794;29;20035;-76
2023/11/12 02:47:17;;;;;;;4.32;3.28;;;10.20;78.60;;;;;;4922558;29;20032;-77
2023/11/12 02:50:01;;;;;;;5.20;4.32;;;10.20;78.60;;;;;;4922347;29;20541;-76
2023/11/12 02:52:27;;;;;;;4.30;3.35;;;10.20;78.70;;;;;;4907641;29;20067;-76
2023/11/12 02:54:53;;;;;;;4.85;4.00;;;10.20;78.60;;;;;;4926922;29;20498;-76
2023/11/12 02:57:21;;;;;;;4.80;4.10;;;10.20;78.60;;;;;;4929873;29;20039;-77
2023/11/12 02:59:50;;;;;;;4.93;3.83;;;10.20;78.60;;;;;;4904091;29;20402;-76
2023/11/12 03:02:16;;;;;;;5.40;3.80;;;10.20;78.60;;;;;;4913596;29;20095;-77
2023/11/12 03:04:42;;;;;;;5.18;4.00;;;10.20;78.60;;;;;;4888068;29;20035;-75
2023/11/12 03:07:08;;;;;;;5.50;4.07;;;10.20;78.60;;;;;;4902963;29;20485;-76
2023/11/12 03:09:34;;;;;;;4.93;3.85;;;10.20;78.70;;;;;;4886993;29;20032;-75
2023/11/12 03:12:02;;;;;;;5.18;4.15;;;10.20;78.60;;;;;;4917699;29;20043;-77
2023/11/12 03:14:29;;;;;;;5.80;4.38;;;10.20;78.60;;;;;;4918073;29;20064;-75
2023/11/12 03:16:54;;;;;;;5.30;4.00;;;10.20;78.70;;;;;;4886459;29;20043;-76
2023/11/12 03:19:21;;;;;;;4.93;4.07;;;10.20;78.70;;;;;;4917337;29;20036;-76
2023/11/12 03:21:55;;;;;;;5.80;4.40;;;10.20;78.70;;;;;;4917768;29;20040;-76
2023/11/12 03:24:21;;;;;;;4.80;3.75;;;10.20;78.70;;;;;;4903361;29;20040;-77
2023/11/12 03:26:50;;;;;;;5.85;4.10;;;10.10;78.60;;;;;;4923635;29;20127;-75
2023/11/12 03:29:17;;;;;;;5.32;4.07;;;10.10;78.60;;;;;;4908699;29;20043;-75
2023/11/12 03:31:48;;;;;;;5.65;4.38;;;10.10;78.70;;;;;;4916899;29;20123;-76
2023/11/12 03:34:14;;;;;;;5.07;4.10;;;10.10;78.60;;;;;;4902950;29;20040;-76
2023/11/12 03:36:40;;;;;;;5.53;4.43;;;10.10;78.70;;;;;;4917313;29;20131;-76
2023/11/12 03:39:08;;;;;;;5.32;4.25;;;10.10;78.60;;;;;;4885882;29;20123;-75
2023/11/12 03:41:33;;;;;;;5.35;4.35;;;10.10;78.70;;;;;;4917073;29;20079;-76
2023/11/12 03:43:59;;;;;;;5.45;4.00;;;10.10;78.70;;;;;;4901355;29;20043;-75
2023/11/12 03:46:25;;;;;;;6.43;4.85;;;10.10;78.60;;;;;;4901538;29;20496;-76
2023/11/12 03:48:51;;;;;;;5.00;4.10;;;10.10;78.70;;;;;;4901223;29;20028;-75
2023/11/12 03:51:17;;;;;;;6.38;4.43;;;10.10;78.70;;;;;;4901159;29;20067;-75
2023/11/12 03:53:43;;;;;;;5.70;4.75;;;10.10;78.70;;;;;;4917044;29;20040;-76
2023/11/12 03:56:09;;;;;;;6.40;4.70;;;10.00;78.70;;;;;;4917403;29;20032;-76
2023/11/12 03:58:35;;;;;;;5.55;4.65;;;10.10;78.70;;;;;;4901055;29;20152;-76
2023/11/12 04:01:01;;;;;;;5.70;4.70;;;10.10;78.70;;;;;;4885744;29;20040;-76
2023/11/12 04:03:27;;;;;;;5.90;4.93;;;10.10;78.70;;;;;;4917345;29;20487;-76
2023/11/12 04:05:53;;;;;;;6.53;5.13;;;10.10;78.70;;;;;;4916692;29;20036;-76
2023/11/12 04:08:20;;;;;;;5.97;4.85;;;10.10;78.70;;;;;;4900957;29;20393;-76
2023/11/12 04:10:46;;;;;;;6.30;4.82;;;10.00;78.70;;;;;;4916871;29;20028;-75
2023/11/12 04:13:12;;;;;;;7.07;5.30;;;10.00;78.70;;;;;;4901832;29;20046;-77
2023/11/12 04:15:38;;;;;;;7.10;5.30;;;10.00;78.70;;;;;;4917682;29;20119;-77
2023/11/12 04:18:04;;;;;;;7.35;5.35;;;10.00;78.70;;;;;;4885649;29;20546;-76
2023/11/12 04:20:32;;;;;;;6.63;5.70;;;10.00;78.70;;;;;;4916412;29;20040;-76
2023/11/12 04:22:58;;;;;;;6.90;5.40;;;10.00;78.70;;;;;;4900744;29;20040;-76
2023/11/12 04:25:24;;;;;;;7.72;5.47;;;10.00;78.70;;;;;;4917538;29;20079;-76
2023/11/12 04:27:50;;;;;;;6.15;4.97;;;10.00;78.70;;;;;;4917070;29;20043;-76
2023/11/12 04:30:17;;;;;;;7.43;5.80;;;10.00;78.70;;;;;;4917081;29;20033;-76
2023/11/12 04:32:44;;;;;;;7.30;5.47;;;10.00;78.70;;;;;;4901024;29;20044;-77
2023/11/12 04:35:11;;;;;;;6.75;5.25;;;10.00;78.70;;;;;;4885901;29;20586;-76
2023/11/12 04:37:37;;;;;;;7.43;5.53;;;10.00;78.70;;;;;;4916655;29;20060;-77
2023/11/12 04:40:04;;;;;;;7.57;5.40;;;10.00;78.70;;;;;;4916151;29;20040;-75
2023/11/12 04:42:30;;;;;;;7.00;5.45;;;10.00;78.70;;;;;;4916312;29;20048;-76
2023/11/12 04:44:56;;;;;;;7.63;5.90;;;10.00;78.70;;;;;;4916291;29;20128;-76
2023/11/12 04:47:21;;;;;;;6.97;5.82;;;10.00;78.70;;;;;;4885252;29;20036;-76
2023/11/12 04:49:47;;;;;;;7.68;5.95;;;10.00;78.70;;;;;;4901194;29;20087;-76
2023/11/12 04:52:13;;;;;;;6.88;5.72;;;10.00;78.70;;;;;;4902509;29;20555;-76
2023/11/12 04:54:39;;;;;;;7.60;5.90;;;10.00;78.70;;;;;;4904825;29;20036;-76
2023/11/12 04:57:04;;;;;;;7.47;5.95;;;10.00;78.70;;;;;;4920473;29;20096;-76
2023/11/12 04:59:30;;;;;;;7.28;5.80;;;10.00;78.70;;;;;;4904617;29;20060;-76
2023/11/12 05:01:56;;;;;;;7.63;5.38;;;10.00;78.70;;;;;;4903664;29;20056;-76
2023/11/12 05:04:22;;;;;;;6.35;5.28;;;10.00;78.70;;;;;;4888960;29;20036;-75
2023/11/12 05:06:47;;;;;;;8.48;6.60;;;10.00;78.70;;;;;;4921781;29;20032;-76
2023/11/12 05:09:13;;;;;;;7.70;6.35;;;10.00;79.40;;;;;;4908123;29;20088;-76
2023/11/12 05:11:39;;;;;;;7.97;6.50;;;9.90;78.70;;;;;;4923556;29;20040;-76
2023/11/12 05:14:05;;;;;;;7.68;6.47;;;10.00;78.70;;;;;;4920079;29;20032;-77
2023/11/12 05:16:31;;;;;;;7.50;6.22;;;10.00;78.70;;;;;;4920028;29;20164;-77
2023/11/12 05:18:57;;;;;;;7.93;6.53;;;10.00;78.70;;;;;;4920975;29;20043;-77
2023/11/12 05:21:22;;;;;;;8.25;6.60;;;10.00;78.80;;;;;;4919231;29;20087;-77
2023/11/12 05:23:48;;;;;;;7.10;5.78;;;10.00;78.70;;;;;;4919557;29;20050;-76
2023/11/12 05:26:14;;;;;;;8.40;6.63;;;9.90;78.70;;;;;;4920002;29;20044;-76
2023/11/12 05:28:40;;;;;;;7.88;6.60;;;10.00;78.70;;;;;;4920141;29;20029;-76
2023/11/12 05:31:07;;;;;;;7.50;6.40;;;9.90;78.70;;;;;;4919552;29;20036;-77
2023/11/12 05:33:33;;;;;;;7.32;6.28;;;9.90;78.70;;;;;;4919456;29;20512;-77
2023/11/12 05:35:58;;;;;;;8.38;6.55;;;10.00;79.40;;;;;;4903114;29;20547;-76
2023/11/12 05:38:25;;;;;;;7.57;6.32;;;10.00;78.70;;;;;;4903392;29;20136;-77
2023/11/12 05:40:51;;;;;;;7.85;6.25;;;10.00;78.70;;;;;;4872677;29;20480;-77
2023/11/12 05:43:17;;;;;;;7.65;6.70;;;9.90;78.70;;;;;;4919240;29;20036;-76
2023/11/12 05:45:43;;;;;;;7.40;5.95;;;10.00;78.70;;;;;;4918665;29;20032;-77
2023/11/12 05:48:10;;;;;;;7.38;6.13;;;10.00;78.70;;;;;;4918963;29;20043;-77
2023/11/12 05:50:37;;;;;;;7.78;6.32;;;10.00;78.80;;;;;;4903359;29;20036;-77
2023/11/12 05:53:02;;;;;;;8.85;6.50;;;10.00;78.80;;;;;;4887338;29;20136;-77
2023/11/12 05:55:28;;;;;;;8.55;7.00;;;9.90;78.70;;;;;;4887218;29;20119;-76
2023/11/12 05:57:54;;;;;;;7.30;5.88;;;10.00;79.40;;;;;;4903764;29;20036;-77
2023/11/12 06:00:20;;;;;;;7.40;6.22;;;10.00;78.70;;;;;;4918566;29;20127;-77
2023/11/12 06:02:46;;;;;;;8.82;6.50;;;10.00;78.70;;;;;;4902391;29;20470;-77
2023/11/12 06:05:12;;;;;;;8.18;6.30;;;9.90;78.70;;;;;;4918175;29;20040;-77
2023/11/12 06:07:38;;;;;;;8.40;7.13;;;9.90;78.70;;;;;;4918554;29;20586;-77
2023/11/12 06:10:04;;;;;;;7.35;6.55;;;9.90;78.70;;;;;;4920525;29;20040;-76
2023/11/12 06:12:30;;;;;;;7.25;6.05;;;10.00;78.70;;;;;;4918168;29;20179;-76
2023/11/12 06:14:56;;;;;;;7.53;5.85;;;10.00;78.80;;;;;;4917909;29;20088;-76
2023/11/12 06:17:23;;;;;;;8.40;6.80;;;9.90;78.70;;;;;;4888100;29;20036;-76
2023/11/12 06:19:51;;;;;;;7.53;6.28;;;10.00;78.80;;;;;;4922366;29;20115;-76
2023/11/12 06:22:16;;;;;;;7.85;6.40;;;9.90;78.70;;;;;;4919821;29;20119;-75
2023/11/12 06:24:42;;;;;;;8.73;6.95;;;9.90;78.70;;;;;;4918146;29;20040;-76
2023/11/12 06:27:08;;;;;;;7.75;6.13;;;9.90;78.70;;;;;;4920189;29;20032;-77
2023/11/12 06:29:35;;;;;;;8.35;6.82;;;9.90;78.70;;;;;;4920873;29;20036;-76
2023/11/12 06:32:02;;;;;;;7.43;6.63;;;9.90;78.70;;;;;;4887021;29;20040;-76
2023/11/12 06:34:27;;;;;;;8.43;6.72;;;9.90;78.70;;;;;;4902492;29;20028;-76
2023/11/12 06:36:53;;;;;;;8.63;6.82;;;9.90;78.70;;;;;;4918835;29;20028;-76
2023/11/12 06:39:19;;;;;;;7.50;6.40;;;9.90;78.70;;;;;;4918288;29;20115;-76
2023/11/12 06:41:44;;;;;;;7.53;6.57;;;9.90;78.70;;;;;;4917752;29;20068;-76
2023/11/12 06:44:11;;;;;;;7.90;6.50;;;9.90;78.70;;;;;;4886735;29;20075;-77
2023/11/12 06:46:42;;;;;;;9.10;6.75;;;9.90;78.70;;;;;;4887029;29;20035;-77
2023/11/12 06:49:08;;;;;;;8.80;7.15;;;9.90;78.70;;;;;;4918657;29;20500;-77
2023/11/12 06:51:33;;;;;;;8.50;6.70;;;9.90;78.70;;;;;;4901860;29;20036;-77
2023/11/12 06:53:59;;;;;;;8.90;6.78;;;9.90;78.70;;;;;;4901717;29;20036;-77
2023/11/12 06:56:30;;;;;;;8.82;6.82;;;9.80;78.70;;;;;;4917725;29;20461;-75
2023/11/12 06:58:56;;;;;;;8.10;6.30;;;9.80;78.70;;;;;;4902548;29;20040;-76
2023/11/12 07:01:23;;;;;;;7.85;6.32;;;9.80;78.70;;;;;;4885827;29;20063;-76
2023/11/12 07:03:48;;;;;;;7.93;6.32;;;9.80;78.70;;;;;;4907896;29;20042;-77
2023/11/12 07:06:14;;;;;;;9.18;6.72;;;9.80;78.70;;;;;;4905542;29;20036;-76
2023/11/12 07:08:40;;;;;;;7.53;6.40;;;9.80;78.70;;;;;;4920855;29;20067;-77
2023/11/12 07:11:06;;;;;;;8.50;6.45;;;9.80;78.70;;;;;;4889468;29;20428;-77
2023/11/12 07:13:32;;;;;;;8.43;6.75;;;9.80;78.70;;;;;;4920608;29;20047;-77
2023/11/12 07:15:59;;;;;;;8.15;6.78;;;9.70;78.70;;;;;;4904214;29;20497;-76
2023/11/12 07:18:24;;;;;;;8.75;7.00;;;9.70;78.70;;;;;;4920342;29;20039;-77
2023/11/12 07:20:50;;;;;;;7.60;6.70;;;9.60;78.60;;;;;;4919979;29;20114;-76
2023/11/12 07:23:16;;;;;;;7.75;6.03;;;9.70;78.70;;;;;;4904337;29;20068;-76
2023/11/12 07:25:41;;;;;;;8.00;7.15;;;9.60;78.60;;;;;;4919954;29;20083;-76
2023/11/12 07:28:08;;;;;;;7.30;6.38;;;9.70;78.70;;;;;;4904522;29;20086;-76
2023/11/12 07:30:36;;;;;;;8.38;6.45;;;9.70;78.70;;;;;;4889280;29;20103;-77
2023/11/12 07:33:02;;;;;;;7.47;6.22;;;9.60;78.60;;;;;;4920205;29;20039;-76
2023/11/12 07:35:28;;;;;;;8.57;6.75;;;9.60;78.70;;;;;;4920966;29;20058;-76
2023/11/12 07:37:53;;;;;;;7.70;6.35;;;9.60;78.70;;;;;;4904165;29;20064;-76
2023/11/12 07:40:19;;;;;;;8.15;6.85;;;9.60;78.70;;;;;;4904027;29;20503;-77
2023/11/12 07:42:45;;;;;;;9.30;7.22;;;9.60;78.70;;;;;;4919889;29;20138;-77
2023/11/12 07:45:11;;;;;;;7.93;6.80;;;9.60;78.70;;;;;;4936518;29;20079;-77
2023/11/12 07:47:40;;;;;;;9.50;7.63;;;9.60;78.70;;;;;;4903953;29;20046;-76
2023/11/12 07:50:07;;;;;;;7.93;6.28;;;9.60;78.70;;;;;;4920481;29;20055;-76
2023/11/12 07:52:33;;;;;;;8.32;6.57;;;9.60;78.70;;;;;;4920328;29;20353;-76
2023/11/12 07:54:59;;;;;;;7.50;6.13;;;9.60;78.70;;;;;;4919821;29;20112;-77
2023/11/12 07:57:25;;;;;;;8.35;7.15;;;9.50;78.60;;;;;;4888301;29;20028;-76
2023/11/12 07:59:51;;;;;;;8.60;7.00;;;9.50;78.70;;;;;;4904545;29;20028;-77
2023/11/12 08:02:19;;;;;;;7.53;6.05;;;9.60;78.70;;;;;;4919016;29;20139;-76
2023/11/12 08:04:44;;;;;;;9.02;7.38;;;9.50;78.70;;;;;;4920334;29;20027;-77
2023/11/12 08:07:10;;;;;;;8.75;6.25;;;9.50;78.60;;;;;;4904006;29;20358;-77
2023/11/12 08:09:36;;;;;;;9.20;6.72;;;9.50;78.70;;;;;;4888297;29;20038;-76
2023/11/12 08:12:05;;;;;;;8.30;6.63;;;9.50;78.70;;;;;;4903691;29;20055;-76
2023/11/12 08:14:31;;;;;;;8.38;6.97;;;9.50;78.70;;;;;;4919161;29;20028;-76
2023/11/12 08:16:57;;;;;;;7.95;6.50;;;9.50;78.70;;;;;;4936712;29;20446;-75
2023/11/12 08:19:22;;;;;;;8.00;6.60;;;9.60;78.70;;;;;;4903567;29;20035;-77
2023/11/12 08:21:48;;;;;;;8.25;6.05;;;9.50;78.70;;;;;;4936031;29;20036;-76
2023/11/12 08:24:14;;;;;;;8.77;7.22;;;9.50;78.70;;;;;;4919152;29;20064;-76
2023/11/12 08:26:41;;;;;;;7.63;6.45;;;9.50;78.70;;;;;;4887445;29;20039;-76
2023/11/12 08:29:07;;;;;;;8.10;6.45;;;9.50;78.70;;;;;;4919907;29;20377;-76
2023/11/12 08:31:36;;;;;;;8.00;6.85;;;9.60;78.70;;;;;;4918952;29;20040;-77
2023/11/12 08:34:05;;;;;;;7.32;6.05;;;9.60;78.70;;;;;;4903740;29;20032;-76
2023/11/12 08:36:31;;;;;;;8.18;7.20;;;9.50;78.70;;;;;;4919488;29;20103;-76
2023/11/12 08:38:57;;;;;;;8.18;6.90;;;9.50;78.70;;;;;;4904250;29;20122;-76
2023/11/12 08:41:22;;;;;;;7.15;6.03;;;9.50;78.60;;;;;;4936010;29;20127;-76
2023/11/12 08:43:49;;;;;;;8.15;6.43;;;9.60;78.70;;;;;;4918876;29;20036;-77
2023/11/12 08:46:17;;;;;;;8.65;6.78;;;9.60;78.70;;;;;;4904198;29;20043;-76
2023/11/12 08:48:43;;;;;;;8.25;6.68;;;9.60;78.70;;;;;;4919375;29;20054;-76
2023/11/12 08:51:12;;;;;;;8.80;7.10;;;9.60;78.70;;;;;;4935876;29;20031;-76
2023/11/12 08:53:39;;;;;;;8.85;6.97;;;9.60;78.70;;;;;;4904536;29;20035;-77
2023/11/12 08:56:06;;;;;;;8.35;6.70;;;9.60;78.70;;;;;;4888799;29;20036;-77
2023/11/12 08:58:32;;;;;;;8.75;7.05;;;9.60;78.70;;;;;;4919231;29;20122;-76
2023/11/12 09:00:57;;;;;;;8.90;6.95;;;9.60;78.70;;;;;;4887630;29;20469;-76
2023/11/12 09:03:23;;;;;;;7.95;6.45;;;9.60;78.70;;;;;;4918629;29;20047;-77
2023/11/12 09:05:49;;;;;;;8.55;6.47;;;9.60;78.70;;;;;;4918983;29;20031;-76
2023/11/12 09:08:15;;;;;;;7.55;6.28;;;9.60;78.70;;;;;;4918963;29;20115;-76
2023/11/12 09:10:42;;;;;;;7.93;6.55;;;9.70;78.80;;;;;;4903675;29;20055;-76
2023/11/12 09:13:09;;;;;;;7.60;6.45;;;9.70;78.70;;;;;;4919172;29;20035;-76
2023/11/12 09:15:36;;;;;;;7.18;5.85;;;9.70;78.70;;;;;;4918796;29;20532;-77
2023/11/12 09:18:02;;;;;;;7.78;6.70;;;9.70;78.70;;;;;;4888778;29;20106;-77
2023/11/12 09:20:28;;;;;;;7.53;6.55;;;9.70;78.70;;;;;;4903090;29;20476;-77
2023/11/12 09:22:54;;;;;;;7.85;5.97;;;9.80;78.80;;;;;;4903399;29;20046;-76
2023/11/12 09:25:19;;;;;;;7.93;6.22;;;9.80;78.80;;;;;;4918980;29;20032;-85
2023/11/12 09:27:45;;;;;;;8.23;6.65;;;9.80;78.80;;;;;;4888279;29;20476;-77
2023/11/12 09:30:11;;;;;;;7.75;5.85;;;9.80;78.80;;;;;;4936336;29;20031;-77
2023/11/12 09:32:37;;;;;;;8.18;6.63;;;9.80;78.80;;;;;;4919143;29;20114;-77
2023/11/12 09:35:08;;;;;;;7.82;5.97;;;9.80;78.70;;;;;;4936513;29;20031;-78
2023/11/12 09:37:34;;;;;;;8.25;6.30;;;9.80;78.70;;;;;;4888622;29;20040;-81
2023/11/12 09:40:01;;;;;;;7.50;6.07;;;9.80;78.70;;;;;;4906450;29;20044;-78
2023/11/12 09:42:28;;;;;;;7.50;5.57;;;9.80;78.70;;;;;;4938820;29;20039;-77
2023/11/12 09:45:05;;;;;;;7.47;5.70;;;9.90;78.80;;;;;;4891492;29;20042;-77
2023/11/12 09:47:51;;;;;;;7.35;6.10;;;9.90;78.80;;;;;;4906477;29;20036;-78
2023/11/12 09:50:17;;;;;;;7.40;5.97;;;9.90;79.40;;;;;;4922201;29;20095;-77
2023/11/12 09:52:47;;;;;;;7.25;5.68;;;9.90;78.70;;;;;;4938496;29;20127;-76
2023/11/12 09:55:16;;;;;;;7.35;5.55;;;9.90;78.70;;;;;;4938639;29;20066;-76
2023/11/12 09:57:42;;;;;;;6.75;5.97;;;10.00;78.80;;;;;;4938953;29;20028;-77
2023/11/12 10:00:12;;;;;;;7.35;5.72;;;9.90;78.70;;;;;;4906654;29;20434;-77
2023/11/12 10:02:39;;;;;;;7.70;6.25;;;10.00;78.80;;;;;;4906523;29;20474;-78
2023/11/12 10:05:10;;;;;;;6.65;5.45;;;10.00;78.80;;;;;;4938472;29;20396;-78
2023/11/12 10:07:40;;;;;;;7.70;6.20;;;10.00;78.70;;;;;;4907110;29;20062;-79
2023/11/12 10:10:26;;;;;;;7.57;5.93;;;10.00;78.80;;;;;;4890576;29;20032;-76
2023/11/12 10:12:53;;;;;;;6.47;5.22;;;10.00;78.80;;;;;;4938325;29;20031;-76
2023/11/12 10:15:27;;;;;;;6.70;5.55;;;10.10;78.80;;;;;;4921885;29;20027;-77
2023/11/12 10:17:54;;;;;;;8.18;6.30;;;10.10;78.80;;;;;;4906551;29;20051;-78
2023/11/12 10:20:23;;;;;;;6.90;5.50;;;10.10;78.80;;;;;;4905591;29;20372;-79
2023/11/12 10:22:50;;;;;;;7.72;5.70;;;10.10;78.80;;;;;;4938328;29;20031;-78
2023/11/12 10:25:38;;;;;;;6.38;5.50;;;10.10;78.80;;;;;;4921470;29;20058;-78
2023/11/12 10:28:06;;;;;;;7.47;5.53;;;10.10;78.90;;;;;;4938471;29;20038;-77
2023/11/12 10:30:33;;;;;;;7.47;5.68;;;10.10;78.80;;;;;;4921445;29;20035;-79
2023/11/12 10:33:27;;;;;;;7.05;5.63;;;10.10;78.80;;;;;;4905585;29;20032;-78
2023/11/12 10:35:55;;;;;;;6.25;5.18;;;10.10;78.90;;;;;;4937673;29;20040;-79
2023/11/12 10:38:22;;;;;;;6.85;5.43;;;10.20;78.80;;;;;;4921620;29;20055;-77
2023/11/12 10:41:05;;;;;;;7.68;5.68;;;10.20;78.90;;;;;;4889782;29;20043;-82
2023/11/12 10:43:33;;;;;;;7.03;5.38;;;10.20;78.90;;;;;;4938340;29;20408;-79
2023/11/12 10:46:06;;;;;;;6.68;5.30;;;10.20;78.80;;;;;;4938135;29;20381;-78
2023/11/12 10:48:42;;;;;;;7.10;5.43;;;10.20;78.90;;;;;;4937962;29;20372;-78
2023/11/12 10:51:10;;;;;;;6.60;5.00;;;10.20;78.90;;;;;;4937559;29;20028;-77
2023/11/12 10:53:38;;;;;;;7.78;5.47;;;10.30;78.80;;;;;;4920859;29;20480;-77
2023/11/12 10:56:05;;;;;;;6.47;5.10;;;10.30;78.80;;;;;;4921033;29;20146;-77
2023/11/12 10:58:32;;;;;;;7.30;5.70;;;10.30;78.80;;;;;;4921674;29;20114;-78
2023/11/12 11:01:01;;;;;;;6.35;5.30;;;10.30;78.90;;;;;;4921126;29;20127;-79
2023/11/12 11:03:29;;;;;;;6.20;4.68;;;10.30;78.80;;;;;;4905430;29;20068;-77
2023/11/12 11:05:56;;;;;;;5.95;4.88;;;10.40;78.90;;;;;;4937589;29;20035;-77
2023/11/12 11:08:26;;;;;;;6.55;4.30;;;10.40;78.90;;;;;;4936425;29;20039;-79
2023/11/12 11:10:54;;;;;;;6.30;4.68;;;10.40;78.90;;;;;;4904705;29;20051;-78
2023/11/12 11:13:21;;;;;;;6.75;5.13;;;10.40;78.90;;;;;;4937246;29;20031;-79
2023/11/12 11:15:48;;;;;;;7.05;5.25;;;10.40;78.90;;;;;;4937171;29;20536;-77
2023/11/12 11:18:31;;;;;;;6.25;4.38;;;10.40;78.80;;;;;;4920322;29;20039;-76
2023/11/12 11:21:04;;;;;;;5.72;4.53;;;10.50;79.00;;;;;;4920192;29;20108;-77
2023/11/12 11:23:40;;;;;;;6.25;4.95;;;10.50;78.90;;;;;;4920902;29;20032;-77
2023/11/12 11:26:27;;;;;;;6.32;5.20;;;10.50;79.00;;;;;;4919960;29;20087;-78
2023/11/12 11:29:05;;;;;;;5.93;4.40;;;10.50;78.90;;;;;;4905084;29;20079;-87
2023/11/12 11:31:30;;;;;;;6.35;4.80;;;10.50;78.90;;;;;;4920755;29;20114;-77
2023/11/12 11:33:58;;;;;;;6.10;4.63;;;10.50;78.90;;;;;;4937359;29;20114;-82
2023/11/12 11:36:28;;;;;;;7.95;5.13;;;10.50;78.90;;;;;;4920139;29;20035;-79
2023/11/12 11:39:02;;;;;;;7.18;4.80;;;10.50;78.90;;;;;;4937513;29;20516;-77
2023/11/12 11:41:34;;;;;;;6.70;4.55;;;10.50;79.00;;;;;;4904291;29;20130;-78
2023/11/12 11:44:39;;;;;;;5.80;4.32;;;10.60;78.90;;;;;;4920170;29;20433;-78
2023/11/12 11:47:05;;;;;;;5.83;4.53;;;10.60;79.00;;;;;;4920369;29;20032;-78
2023/11/12 11:49:31;;;;;;;5.63;4.25;;;10.60;78.80;;;;;;4904049;29;20758;-78
2023/11/12 11:52:01;;;;;;;6.03;4.10;;;10.60;78.90;;;;;;4904013;29;20441;-78
2023/11/12 11:54:30;;;;;;;8.60;4.00;;;10.60;78.90;;;;;;4888881;29;20476;-78
2023/11/12 11:56:58;;;;;;;5.53;4.20;;;10.60;78.90;;;;;;4936317;29;20031;-80
2023/11/12 11:59:24;;;;;;;5.75;4.20;;;10.60;78.90;;;;;;4919316;29;20038;-78
2023/11/12 12:01:53;;;;;;;5.40;3.88;;;10.60;78.90;;;;;;4903123;29;20389;-78
2023/11/12 12:04:19;;;;;;;5.38;4.13;;;10.70;78.90;;;;;;4937353;29;20027;-78
2023/11/12 12:06:46;;;;;;;5.75;4.07;;;10.70;78.90;;;;;;4919887;29;20038;-78
2023/11/12 12:09:17;;;;;;;5.82;4.50;;;10.70;78.90;;;;;;4920232;29;20029;-81
2023/11/12 12:11:48;;;;;;;5.90;4.47;;;10.70;78.90;;;;;;4888649;29;20044;-88
2023/11/12 12:14:15;;;;;;;6.03;4.35;;;10.70;78.90;;;;;;4919383;29;20027;-79
2023/11/12 12:16:45;;;;;;;5.72;4.20;;;10.80;78.90;;;;;;4919725;29;20027;-79
2023/11/12 12:19:21;;;;;;;5.13;3.85;;;10.80;78.80;;;;;;4936970;29;20067;-78
2023/11/12 12:21:48;;;;;;;5.68;4.05;;;10.80;78.90;;;;;;4919616;29;20043;-78
2023/11/12 12:24:16;;;;;;;5.55;4.20;;;10.80;78.80;;;;;;4919333;29;20044;-79
2023/11/12 12:26:43;;;;;;;4.93;3.80;;;10.90;78.90;;;;;;4903709;29;20130;-78
2023/11/12 12:29:23;;;;;;;4.63;3.53;;;10.90;78.80;;;;;;4904148;29;20044;-78
2023/11/12 12:31:51;;;;;;;5.07;3.78;;;10.90;78.90;;;;;;4919678;29;20074;-79
2023/11/12 12:34:19;;;;;;;5.53;4.25;;;11.00;78.80;;;;;;4936049;29;20486;-78
2023/11/12 12:37:06;;;;;;;5.20;3.97;;;11.00;78.80;;;;;;4919201;29;20035;-78
2023/11/12 12:39:53;;;;;;;5.38;4.05;;;11.00;78.80;;;;;;4919225;29;20042;-79
2023/11/12 12:42:26;;;;;;;5.43;3.90;;;11.10;78.80;;;;;;4935980;29;20050;-79
2023/11/12 12:44:53;;;;;;;4.78;3.70;;;11.10;78.70;;;;;;4936564;29;20050;-78
2023/11/12 12:47:33;;;;;;;4.97;4.00;;;11.10;78.70;;;;;;4919216;29;20056;-79
2023/11/12 12:50:22;;;;;;;5.65;4.00;;;11.10;78.70;;;;;;4919523;29;20036;-78
2023/11/12 12:52:51;;;;;;;5.18;3.90;;;11.20;78.70;;;;;;4906197;29;20481;-79